Time;durP1;ratioP1;P1;durP2;ratioP2;P2;SDS_P1;SDS_P2;PMS_P1;PMS_P2;Temp;Humidity;BMP_temperature;BMP_pressure;BME280_temperature;BME280_humidity;BME280_pressure;Samples;Min_cycle;Max_cycle;Signal;HPM_P1;HPM_P2
2023/09/02 00:00:27;;;;;;;7.00;4.93;;;;;;;;;;5014312;28;20053;-75
2023/09/02 00:02:53;;;;;;;6.65;5.95;;;;;;;;;;4997271;28;20153;-79
2023/09/02 00:05:19;;;;;;;6.20;5.57;;;;;;;;;;5014821;28;20049;-77
2023/09/02 00:07:45;;;;;;;6.47;5.25;;;;;;;;;;5016513;28;20593;-78
2023/09/02 00:10:12;;;;;;;6.70;5.20;;;;;;;;;;5021008;28;20056;-78
2023/09/02 00:12:38;;;;;;;7.72;5.63;;;;;;;;;;5014807;28;20054;-76
2023/09/02 00:15:04;;;;;;;6.40;5.50;;;;;;;;;;5014753;28;20445;-76
2023/09/02 00:17:31;;;;;;;6.45;5.57;;;11.10;99.90;;;;;;5016265;28;20079;-77
2023/09/02 00:19:57;;;;;;;5.55;5.00;;;;;;;;;;5011900;28;20151;-76
2023/09/02 00:22:24;;;;;;;6.72;5.82;;;;;;;;;;4993278;28;20546;-79
2023/09/02 00:24:50;;;;;;;7.13;5.68;;;;;;;;;;5000812;28;20188;-78
2023/09/02 00:27:16;;;;;;;6.88;6.18;;;;;;;;;;5006447;28;20203;-78
2023/09/02 00:29:42;;;;;;;9.32;6.93;;;;;;;;;;4999236;28;20232;-77
2023/09/02 00:32:08;;;;;;;7.13;6.07;;;;;;;;;;5014588;28;20085;-78
2023/09/02 00:34:34;;;;;;;9.13;6.15;;;;;;;;;;5026550;28;20130;-78
2023/09/02 00:37:00;;;;;;;8.43;6.40;;;;;;;;;;5014659;28;20921;-77
2023/09/02 00:39:27;;;;;;;5.97;5.38;;;;;;;;;;5004249;28;20159;-77
2023/09/02 00:41:55;;;;;;;9.48;5.50;;;10.70;99.90;;;;;;5019932;28;20096;-78
2023/09/02 00:44:21;;;;;;;7.45;5.65;;;10.70;99.90;;;;;;5013938;28;20098;-78
2023/09/02 00:46:47;;;;;;;7.07;6.22;;;;;;;;;;4999230;28;20065;-77
2023/09/02 00:49:13;;;;;;;6.10;5.25;;;;;;;;;;5024311;28;20053;-78
2023/09/02 00:51:39;;;;;;;7.03;5.43;;;;;;;;;;5001530;28;20639;-78
2023/09/02 00:54:06;;;;;;;5.75;4.40;;;;;;;;;;4998926;28;20060;-77
2023/09/02 00:56:32;;;;;;;4.28;3.15;;;10.60;99.90;;;;;;5015552;28;20128;-77
2023/09/02 00:59:02;;;;;;;2.30;1.40;;;10.60;99.90;;;;;;5015974;28;20141;-78
2023/09/02 01:01:31;;;;;;;2.85;1.40;;;10.60;99.90;;;;;;5004402;28;20063;-77
2023/09/02 01:03:57;;;;;;;1.80;1.50;;;;;;;;;;5018977;28;20058;-77
2023/09/02 01:06:23;;;;;;;4.25;1.10;;;;;;;;;;5002897;28;20053;-78
2023/09/02 01:08:49;;;;;;;2.70;1.83;;;;;;;;;;5009903;28;20655;-76
2023/09/02 01:11:15;;;;;;;2.53;2.08;;;;;;;;;;5018426;28;20139;-79
2023/09/02 01:13:41;;;;;;;3.38;1.73;;;;;;;;;;5001619;28;20140;-79
2023/09/02 01:16:08;;;;;;;2.45;1.55;;;;;;;;;;5016941;28;20049;-77
2023/09/02 01:18:36;;;;;;;2.90;1.88;;;;;;;;;;5014421;28;20053;-77
2023/09/02 01:21:17;;;;;;;2.83;2.53;;;10.50;99.90;;;;;;5007677;28;20136;-78
2023/09/02 01:23:46;;;;;;;4.22;3.40;;;10.50;99.90;;;;;;4998425;28;20060;-79
2023/09/02 01:26:27;;;;;;;6.38;3.38;;;10.50;99.90;;;;;;5014319;28;20057;-76
2023/09/02 01:29:00;;;;;;;7.97;4.53;;;10.70;99.90;;;;;;5014270;28;20057;-78
2023/09/02 01:31:28;;;;;;;5.70;4.70;;;10.50;99.90;;;;;;5022160;28;20064;-78
2023/09/02 01:33:55;;;;;;;4.75;4.13;;;;;;;;;;5008717;28;20072;-78
2023/09/02 01:36:24;;;;;;;5.00;4.47;;;10.20;99.90;;;;;;5019253;28;20252;-78
2023/09/02 01:39:10;;;;;;;5.70;4.30;;;10.50;99.90;;;;;;5014561;28;20522;-78
2023/09/02 01:41:37;;;;;;;6.30;4.50;;;10.50;99.90;;;;;;4981778;28;20065;-79
2023/09/02 01:44:04;;;;;;;4.70;3.88;;;;;;;;;;4994208;28;20053;-78
2023/09/02 01:46:30;;;;;;;5.10;4.30;;;;;;;;;;4979208;28;20057;-79
2023/09/02 01:48:56;;;;;;;6.28;4.05;;;10.50;99.90;;;;;;4979974;28;20064;-79
2023/09/02 01:51:23;;;;;;;3.53;2.95;;;10.40;99.90;;;;;;4995356;28;20057;-77
2023/09/02 01:53:49;;;;;;;4.07;3.45;;;;;;;;;;4995473;28;20095;-79
2023/09/02 01:56:15;;;;;;;4.47;4.07;;;10.30;99.90;;;;;;4995709;28;20079;-79
2023/09/02 01:58:41;;;;;;;5.10;3.95;;;;;;;;;;4995776;28;20049;-80
2023/09/02 02:01:08;;;;;;;7.25;4.57;;;;;;;;;;4977308;28;20057;-79
2023/09/02 02:03:59;;;;;;;37.33;6.38;;;10.40;99.90;;;;;;4978066;28;20057;-79
2023/09/02 02:06:26;;;;;;;8.20;5.80;;;;;;;;;;4995500;28;20357;-80
2023/09/02 02:09:06;;;;;;;7.63;6.07;;;10.40;99.90;;;;;;4995327;28;20781;-80
2023/09/02 02:11:35;;;;;;;6.43;4.10;;;10.40;99.90;;;;;;4972877;28;20061;-80
2023/09/02 02:14:02;;;;;;;4.95;4.30;;;10.40;99.90;;;;;;5020341;28;20065;-79
2023/09/02 02:16:30;;;;;;;8.88;4.03;;;10.30;99.90;;;;;;4997821;28;20062;-80
2023/09/02 02:18:59;;;;;;;5.53;4.15;;;10.30;99.90;;;;;;4999480;28;20099;-80
2023/09/02 02:21:29;;;;;;;4.75;4.25;;;10.20;99.90;;;;;;5014126;28;20049;-80
2023/09/02 02:23:56;;;;;;;5.07;4.05;;;;;;;;;;4997579;28;20186;-81
2023/09/02 02:26:41;;;;;;;7.40;4.50;;;;;;;;;;4999590;28;20053;-79
2023/09/02 02:29:07;;;;;;;8.48;4.68;;;;;;;;;;5023114;28;20091;-80
2023/09/02 02:31:36;;;;;;;14.65;6.70;;;;;;;;;;4999473;28;20120;-81
2023/09/02 02:34:02;;;;;;;9.65;5.43;;;;;;;;;;5009735;28;20156;-79
2023/09/02 02:36:28;;;;;;;8.60;6.22;;;;;;;;;;4999839;28;20057;-81
2023/09/02 02:38:54;;;;;;;12.15;4.75;;;;;;;;;;5026216;28;20045;-81
2023/09/02 02:41:21;;;;;;;11.30;5.85;;;;;;;;;;5023234;28;20065;-81
2023/09/02 02:43:47;;;;;;;13.43;5.60;;;;;;;;;;4999016;28;20053;-80
2023/09/02 02:46:13;;;;;;;6.68;5.00;;;;;;;;;;4999280;28;20140;-80
2023/09/02 02:48:39;;;;;;;8.38;6.20;;;;;;;;;;5004346;28;20089;-81
2023/09/02 02:51:05;;;;;;;7.93;5.07;;;;;;;;;;5004460;28;20187;-81
2023/09/02 02:53:32;;;;;;;8.55;4.75;;;;;;;;;;5007186;28;20049;-80
2023/09/02 02:56:02;;;;;;;8.02;4.00;;;;;;;;;;5029100;28;20092;-79
2023/09/02 02:58:28;;;;;;;5.82;4.47;;;;;;;;;;5014473;28;20089;-79
2023/09/02 03:01:03;;;;;;;6.70;5.10;;;9.90;99.90;;;;;;5005108;28;20049;-81
2023/09/02 03:03:29;;;;;;;8.18;5.45;;;;;;;;;;4996737;28;20057;-80
2023/09/02 03:05:56;;;;;;;4.88;3.97;;;;;;;;;;4996891;28;20053;-80
2023/09/02 03:08:22;;;;;;;5.38;3.65;;;;;;;;;;5000380;28;20049;-80
2023/09/02 03:10:58;;;;;;;5.35;3.67;;;9.80;99.90;;;;;;4997088;28;20064;-80
2023/09/02 03:13:24;;;;;;;4.03;2.60;;;;;;;;;;4990393;28;20057;-80
2023/09/02 03:15:54;;;;;;;4.30;3.03;;;9.80;99.90;;;;;;4996967;28;20045;-80
2023/09/02 03:18:20;;;;;;;4.13;2.53;;;;;;;;;;5020346;28;20499;-80
2023/09/02 03:20:46;;;;;;;4.00;3.38;;;;;;;;;;5019842;28;20140;-80
2023/09/02 03:23:15;;;;;;;4.10;2.90;;;9.70;99.90;;;;;;5022501;28;20409;-79
2023/09/02 03:25:41;;;;;;;5.82;3.55;;;;;;;;;;5023179;28;20499;-80
2023/09/02 03:28:07;;;;;;;19.58;3.58;;;;;;;;;;5030338;28;20058;-79
2023/09/02 03:30:34;;;;;;;7.97;4.20;;;;;;;;;;5005477;28;20071;-80
2023/09/02 03:33:00;;;;;;;3.88;3.47;;;;;;;;;;5015874;28;20605;-80
2023/09/02 03:35:26;;;;;;;4.55;3.92;;;;;;;;;;5010056;28;20092;-80
2023/09/02 03:37:52;;;;;;;3.45;3.08;;;;;;;;;;5006334;28;20053;-80
2023/09/02 03:40:18;;;;;;;4.15;3.30;;;;;;;;;;5026282;28;20057;-79
2023/09/02 03:42:45;;;;;;;4.13;3.33;;;;;;;;;;4996027;28;20050;-80
2023/09/02 03:45:11;;;;;;;4.32;3.25;;;;;;;;;;5001084;28;20617;-80
2023/09/02 03:47:37;;;;;;;5.00;3.35;;;;;;;;;;5004637;28;20061;-80
2023/09/02 03:50:04;;;;;;;7.07;3.85;;;12.50;99.90;;;;;;5002300;28;20513;-80
2023/09/02 03:52:30;;;;;;;4.88;3.53;;;;;;;;;;5006746;28;20450;-81
2023/09/02 03:54:57;;;;;;;4.07;3.28;;;;;;;;;;5028741;28;20394;-81
2023/09/02 03:57:24;;;;;;;9.95;3.60;;;;;;;;;;5033510;28;20068;-80
2023/09/02 03:59:50;;;;;;;4.63;3.55;;;;;;;;;;5034729;28;20426;-80
2023/09/02 04:02:16;;;;;;;13.98;5.88;;;;;;;;;;5024582;28;20054;-80
2023/09/02 04:04:42;;;;;;;8.20;4.93;;;;;;;;;;5001388;28;20053;-80
2023/09/02 04:07:09;;;;;;;8.43;5.22;;;;;;;;;;5022060;28;20145;-80
2023/09/02 04:09:35;;;;;;;5.82;4.13;;;;;;;;;;5004151;28;20138;-80
2023/09/02 04:12:01;;;;;;;8.82;4.78;;;;;;;;;;5017198;28;20518;-80
2023/09/02 04:14:27;;;;;;;6.65;4.55;;;;;;;;;;5011924;28;20076;-80
2023/09/02 04:16:54;;;;;;;11.82;5.25;;;9.70;99.90;;;;;;5025597;28;20098;-80
2023/09/02 04:19:22;;;;;;;8.98;5.35;;;;;;;;;;5013073;28;20592;-79
2023/09/02 04:21:52;;;;;;;10.43;5.68;;;9.70;99.90;;;;;;5003528;28;20053;-81
2023/09/02 04:24:18;;;;;;;10.65;5.63;;;;;;;;;;5022384;28;20059;-80
2023/09/02 04:26:44;;;;;;;7.75;5.18;;;;;;;;;;5021212;28;20068;-80
2023/09/02 04:29:10;;;;;;;7.15;5.18;;;;;;;;;;5023809;28;20068;-80
2023/09/02 04:31:36;;;;;;;7.65;4.20;;;;;;;;;;5020485;28;20049;-80
2023/09/02 04:34:02;;;;;;;5.45;3.33;;;;;;;;;;5016290;28;20119;-80
2023/09/02 04:36:29;;;;;;;5.07;3.20;;;;;;;;;;5014674;28;20048;-80
2023/09/02 04:38:55;;;;;;;3.08;2.30;;;;;;;;;;5015125;28;20049;-80
2023/09/02 04:41:25;;;;;;;5.45;2.20;;;;;;;;;;5001087;28;20059;-78
2023/09/02 04:43:51;;;;;;;5.20;2.85;;;;;;;;;;5015264;28;20068;-80
2023/09/02 04:46:17;;;;;;;6.97;4.55;;;;;;;;;;5017216;28;20068;-80
2023/09/02 04:48:46;;;;;;;6.13;4.05;;;;;;;;;;5000614;28;20589;-79
2023/09/02 04:51:12;;;;;;;9.38;4.90;;;;;;;;;;5023715;28;20072;-80
2023/09/02 04:53:39;;;;;;;7.43;5.53;;;;;;;;;;5021933;28;20056;-78
2023/09/02 04:56:05;;;;;;;8.35;4.60;;;9.90;99.90;;;;;;5014723;28;20064;-78
2023/09/02 04:58:31;;;;;;;7.63;5.40;;;;;;;;;;5016198;28;20065;-79
2023/09/02 05:01:07;;;;;;;6.43;4.40;;;10.00;99.90;;;;;;5015817;28;20042;-78
2023/09/02 05:03:34;;;;;;;10.15;5.47;;;;;;;;;;4997809;28;20064;-78
2023/09/02 05:06:01;;;;;;;7.75;6.22;;;;;;;;;;4996823;28;20049;-78
2023/09/02 05:08:31;;;;;;;8.85;5.38;;;;;;;;;;5005856;28;20146;-79
2023/09/02 05:10:57;;;;;;;9.50;7.30;;;;;;;;;;5021463;28;20107;-80
2023/09/02 05:13:24;;;;;;;7.78;5.03;;;;;;;;;;5018417;28;20057;-80
2023/09/02 05:15:50;;;;;;;8.63;5.97;;;;;;;;;;5019720;28;20059;-79
2023/09/02 05:18:16;;;;;;;8.18;5.72;;;;;;;;;;5023472;28;20042;-80
2023/09/02 05:20:42;;;;;;;10.93;5.95;;;;;;;;;;4998723;28;20057;-79
2023/09/02 05:23:09;;;;;;;11.00;5.95;;;;;;;;;;4998403;28;20053;-79
2023/09/02 05:25:35;;;;;;;14.75;7.80;;;;;;;;;;5015048;28;20490;-79
2023/09/02 05:28:01;;;;;;;11.15;8.65;;;;;;;;;;4998599;28;20045;-78
2023/09/02 05:30:28;;;;;;;16.17;9.65;;;;;;;;;;4996985;28;20120;-79
2023/09/02 05:32:54;;;;;;;15.75;10.57;;;;;;;;;;5014116;28;20065;-78
2023/09/02 05:35:20;;;;;;;14.98;9.98;;;;;;;;;;4998385;28;20065;-79
2023/09/02 05:37:46;;;;;;;17.42;9.45;;;;;;;;;;4999419;28;20058;-78
2023/09/02 05:40:12;;;;;;;14.27;10.35;;;;;;;;;;5007526;28;20416;-78
2023/09/02 05:42:39;;;;;;;26.80;15.45;;;11.20;99.90;;;;;;5011323;28;20596;-79
2023/09/02 05:45:06;;;;;;;23.05;14.60;;;;;;;;;;5027060;28;20086;-79
2023/09/02 05:47:32;;;;;;;26.08;15.80;;;;;;;;;;5028123;28;20068;-79
2023/09/02 05:49:58;;;;;;;28.90;18.27;;;;;;;;;;5018375;28;20076;-78
2023/09/02 05:52:24;;;;;;;29.33;19.42;;;;;;;;;;5019949;28;20057;-79
2023/09/02 05:54:50;;;;;;;38.70;20.13;;;;;;;;;;5013681;28;20354;-78
2023/09/02 05:57:16;;;;;;;28.90;19.67;;;;;;;;;;5012891;28;20081;-78
2023/09/02 05:59:44;;;;;;;28.20;18.73;;;11.80;99.90;;;;;;4995616;28;20061;-77
2023/09/02 06:02:10;;;;;;;33.88;19.20;;;;;;;;;;5011172;28;20065;-79
2023/09/02 06:04:36;;;;;;;33.35;18.67;;;;;;;;;;5013953;28;20084;-79
2023/09/02 06:07:02;;;;;;;25.80;17.27;;;;;;;;;;5018454;28;20069;-79
2023/09/02 06:09:29;;;;;;;32.33;21.75;;;;;;;;;;4999315;28;20107;-79
2023/09/02 06:11:55;;;;;;;27.15;19.20;;;;;;;;;;5023342;28;20513;-79
2023/09/02 06:14:22;;;;;;;22.65;16.55;;;;;;;;;;5007033;28;20064;-79
2023/09/02 06:16:48;;;;;;;26.60;20.42;;;;;;;;;;5030503;28;20048;-79
2023/09/02 06:19:14;;;;;;;26.65;18.17;;;;;;;;;;5036906;28;20076;-79
2023/09/02 06:21:40;;;;;;;25.13;18.63;;;;;;;;;;5014904;28;20429;-81
2023/09/02 06:24:06;;;;;;;22.58;17.15;;;;;;;;;;5007716;28;20056;-79
2023/09/02 06:26:32;;;;;;;25.27;18.00;;;;;;;;;;5001519;28;20057;-79
2023/09/02 06:28:58;;;;;;;22.58;16.63;;;;;;;;;;5019074;28;20041;-80
2023/09/02 06:31:24;;;;;;;22.48;15.05;;;;;;;;;;5016894;28;20053;-80
2023/09/02 06:33:51;;;;;;;22.50;17.92;;;;;;;;;;5013704;28;20045;-79
2023/09/02 06:36:18;;;;;;;18.42;15.35;;;;;;;;;;5024674;28;20266;-79
2023/09/02 06:38:45;;;;;;;26.30;18.05;;;;;;;;;;5006672;28;20053;-80
2023/09/02 06:41:15;;;;;;;26.30;18.00;;;13.50;99.90;;;;;;5026584;28;20410;-80
2023/09/02 06:43:41;;;;;;;24.70;19.65;;;;;;;;;;5028319;28;20506;-79
2023/09/02 06:46:25;;;;;;;23.27;20.10;;;13.40;99.90;;;;;;4998726;28;20859;-79
2023/09/02 06:48:53;;;;;;;25.02;19.90;;;;;;;;;;5015562;28;20753;-79
2023/09/02 06:51:19;;;;;;;25.88;20.15;;;;;;;;;;5021763;28;20506;-79
2023/09/02 06:53:45;;;;;;;24.75;20.77;;;;;;;;;;5028459;28;20053;-78
2023/09/02 06:56:12;;;;;;;31.05;21.48;;;14.10;99.90;;;;;;5016180;28;20143;-78
2023/09/02 06:58:39;;;;;;;24.40;21.30;;;14.60;99.90;;;;;;5016247;28;20050;-79
2023/09/02 07:01:06;;;;;;;27.17;22.02;;;;;;;;;;5024214;28;20084;-79
2023/09/02 07:03:32;;;;;;;25.70;21.52;;;;;;;;;;5012897;28;20065;-79
2023/09/02 07:06:08;;;;;;;23.85;19.98;;;15.60;99.90;;;;;;5015651;28;20140;-79
2023/09/02 07:08:35;;;;;;;26.80;20.40;;;;;;;;;;5021779;28;20089;-80
2023/09/02 07:11:01;;;;;;;25.92;21.08;;;;;;;;;;4996527;28;20081;-79
2023/09/02 07:13:27;;;;;;;26.23;20.90;;;;;;;;;;5002584;28;20091;-80
2023/09/02 07:16:01;;;;;;;22.73;19.77;;;16.10;99.90;;;;;;5014772;28;20123;-79
2023/09/02 07:18:27;;;;;;;21.60;19.23;;;;;;;;;;5016292;28;20060;-80
2023/09/02 07:20:58;;;;;;;22.85;20.45;;;15.90;99.90;;;;;;5015584;28;20721;-79
2023/09/02 07:23:24;;;;;;;26.05;20.33;;;;;;;;;;5013973;28;20573;-80
2023/09/02 07:25:50;;;;;;;23.60;19.90;;;;;;;;;;5016384;28;20151;-80
2023/09/02 07:28:17;;;;;;;23.70;20.25;;;;;;;;;;5002484;28;20132;-79
2023/09/02 07:30:43;;;;;;;23.73;20.73;;;;;;;;;;5002993;28;20057;-78
2023/09/02 07:33:09;;;;;;;25.23;20.95;;;;;;;;;;5008220;28;20091;-80
2023/09/02 07:35:37;;;;;;;26.15;20.10;;;;;;;;;;5019830;28;20126;-79
2023/09/02 07:38:06;;;;;;;24.65;22.00;;;16.10;99.90;;;;;;5019085;28;20058;-79
2023/09/02 07:40:33;;;;;;;25.33;22.63;;;;;;;;;;5019953;28;20062;-79
2023/09/02 07:43:02;;;;;;;25.30;20.20;;;15.80;99.90;;;;;;5011406;28;20057;-79
2023/09/02 07:45:29;;;;;;;25.63;22.88;;;;;;;;;;5015374;28;20135;-78
2023/09/02 07:47:55;;;;;;;25.73;21.10;;;;;;;;;;5002307;28;20052;-79
2023/09/02 07:50:21;;;;;;;27.00;23.13;;;;;;;;;;4998495;28;20103;-78
2023/09/02 07:52:48;;;;;;;27.55;22.48;;;16.30;99.90;;;;;;4997321;28;20046;-79
2023/09/02 07:55:15;;;;;;;24.63;21.95;;;;;;;;;;5020685;28;20068;-78
2023/09/02 07:57:41;;;;;;;27.15;22.77;;;;;;;;;;5011436;28;20053;-77
2023/09/02 08:00:08;;;;;;;26.73;22.60;;;16.70;99.90;;;;;;5012026;28;20595;-77
2023/09/02 08:02:34;;;;;;;25.98;22.02;;;;;;;;;;4998577;28;20095;-77
2023/09/02 08:05:00;;;;;;;27.65;23.05;;;;;;;;;;5011689;28;20057;-77
2023/09/02 08:07:26;;;;;;;27.23;23.08;;;;;;;;;;5012767;28;20137;-76
2023/09/02 08:12:20;;;;;;;29.25;22.17;;;;;;;;;;5020655;22;20064;-76
2023/09/02 08:14:46;;;;;;;24.98;22.27;;;;;;;;;;4997323;28;20065;-77
2023/09/02 08:17:12;;;;;;;24.98;20.48;;;;;;;;;;5012779;28;20128;-77
2023/09/02 08:19:39;;;;;;;28.73;21.70;;;;;;;;;;5007949;28;20089;-78
2023/09/02 08:22:05;;;;;;;24.35;20.20;;;;;;;;;;5012244;28;20050;-77
2023/09/02 08:24:31;;;;;;;26.35;20.85;;;;;;;;;;5011540;28;20045;-76
2023/09/02 08:26:57;;;;;;;24.55;20.98;;;;;;;;;;5011240;28;20521;-76
2023/09/02 08:29:23;;;;;;;28.17;21.73;;;;;;;;;;5011001;28;20092;-78
2023/09/02 08:31:53;;;;;;;23.10;20.40;;;18.80;99.90;;;;;;5011301;28;20115;-77
2023/09/02 08:34:20;;;;;;;25.38;20.40;;;;;;;;;;4992938;28;20083;-77
2023/09/02 08:36:46;;;;;;;23.15;19.70;;;;;;;;;;5013944;28;20119;-75
2023/09/02 08:39:12;;;;;;;23.85;20.80;;;;;;;;;;5012341;28;20131;-75
2023/09/02 08:41:40;;;;;;;25.58;19.60;;;19.20;99.90;;;;;;5013426;28;20059;-78
2023/09/02 08:44:07;;;;;;;25.40;20.58;;;;;;;;;;5009603;28;20839;-76
2023/09/02 08:46:34;;;;;;;23.33;19.00;;;;;;;;;;5012906;28;20088;-75
2023/09/02 08:49:00;;;;;;;23.15;19.50;;;;;;;;;;5012357;28;20808;-78
2023/09/02 08:51:28;;;;;;;22.88;18.77;;;19.60;99.90;;;;;;5012913;28;20053;-78
2023/09/02 08:53:54;;;;;;;25.52;19.40;;;19.70;99.90;;;;;;4995821;28;20179;-77
2023/09/02 08:56:23;;;;;;;22.13;19.83;;;19.50;99.90;;;;;;5011709;28;20052;-75
2023/09/02 08:58:50;;;;;;;22.30;19.15;;;19.90;99.90;;;;;;4996205;28;20823;-75
2023/09/02 09:01:21;;;;;;;24.85;19.58;;;20.10;99.90;;;;;;4996011;28;20164;-78
2023/09/02 09:03:52;;;;;;;24.77;18.67;;;20.30;99.90;;;;;;5011746;28;20093;-77
2023/09/02 09:06:21;;;;;;;22.25;19.42;;;20.60;99.90;;;;;;5002619;28;20061;-76
2023/09/02 09:08:48;;;;;;;20.48;18.08;;;;;;;;;;5029842;28;20767;-77
2023/09/02 09:11:16;;;;;;;20.20;18.08;;;21.70;99.90;;;;;;5014501;28;20524;-74
2023/09/02 09:13:45;;;;;;;22.35;17.83;;;22.60;99.90;;;;;;4996152;28;20148;-78
2023/09/02 09:16:19;;;;;;;21.95;18.00;;;23.30;99.90;;;;;;5010528;28;20061;-78
2023/09/02 09:18:46;;;;;;;23.42;18.10;;;;;;;;;;5015165;28;20057;-80
2023/09/02 09:21:12;;;;;;;20.40;17.40;;;;;;;;;;5012958;28;20112;-77
2023/09/02 09:23:38;;;;;;;22.65;17.38;;;;;;;;;;5013545;28;20554;-75
2023/09/02 09:26:04;;;;;;;19.67;15.65;;;;;;;;;;4997667;28;20143;-78
2023/09/02 09:28:52;;;;;;;21.77;17.33;;;25.30;99.10;;;;;;5015159;28;20061;-74
2023/09/02 09:31:19;;;;;;;20.30;16.35;;;;;;;;;;5016004;28;20381;-74
2023/09/02 09:34:01;;;;;;;18.55;14.45;;;26.30;96.60;;;;;;5012536;28;20513;-76
2023/09/02 09:36:29;;;;;;;19.88;16.40;;;25.90;95.80;;;;;;4992278;28;20270;-78
2023/09/02 09:38:55;;;;;;;19.33;16.65;;;25.80;95.80;;;;;;5012737;28;20071;-79
2023/09/02 09:41:23;;;;;;;19.92;15.90;;;25.90;95.30;;;;;;5012768;28;20136;-78
2023/09/02 09:44:12;;;;;;;18.08;14.98;;;25.80;94.70;;;;;;5026607;28;20134;-78
2023/09/02 09:46:51;;;;;;;17.95;14.65;;;25.60;95.20;;;;;;5013909;28;20041;-74
2023/09/02 09:49:37;;;;;;;18.17;13.50;;;24.90;94.40;;;;;;4996895;28;20901;-75
2023/09/02 09:52:03;;;;;;;17.02;13.40;;;;;;;;;;5012408;28;20187;-77
2023/09/02 09:54:38;;;;;;;12.77;11.30;;;24.00;94.70;;;;;;5012831;28;20061;-76
2023/09/02 09:57:06;;;;;;;21.80;14.80;;;23.70;94.90;;;;;;5012627;28;20088;-77
2023/09/02 09:59:36;;;;;;;20.90;14.45;;;23.50;95.30;;;;;;5012941;28;20443;-76
2023/09/02 10:02:06;;;;;;;17.50;14.77;;;23.40;95.80;;;;;;4996006;28;20608;-76
2023/09/02 10:04:33;;;;;;;14.68;11.80;;;23.60;96.50;;;;;;5010788;28;20573;-77
2023/09/02 10:07:04;;;;;;;19.30;13.80;;;23.70;96.20;;;;;;4994867;28;20054;-77
2023/09/02 10:09:45;;;;;;;20.77;14.30;;;23.70;95.90;;;;;;5010752;28;20061;-74
2023/09/02 10:12:12;;;;;;;19.38;14.95;;;23.60;96.40;;;;;;5009192;28;20049;-75
2023/09/02 10:14:42;;;;;;;16.30;13.30;;;23.70;96.90;;;;;;5010781;28;20681;-73
2023/09/02 10:17:09;;;;;;;13.95;10.68;;;24.30;96.80;;;;;;4994695;28;20530;-73
2023/09/02 10:19:36;;;;;;;19.08;14.38;;;23.90;95.80;;;;;;4995460;28;20064;-74
2023/09/02 10:22:03;;;;;;;16.67;12.88;;;23.80;95.70;;;;;;4987845;28;20084;-76
2023/09/02 10:24:33;;;;;;;19.95;14.32;;;23.60;95.90;;;;;;4995125;28;20049;-74
2023/09/02 10:27:03;;;;;;;19.10;14.70;;;23.60;95.70;;;;;;5009902;28;20088;-76
2023/09/02 10:29:34;;;;;;;18.50;13.35;;;23.50;95.70;;;;;;5011370;28;20787;-77
2023/09/02 10:32:13;;;;;;;20.48;14.15;;;23.50;95.80;;;;;;5008945;28;20215;-75
2023/09/02 10:35:04;;;;;;;20.00;13.35;;;23.40;95.40;;;;;;5006667;28;20145;-74
2023/09/02 10:37:42;;;;;;;20.00;14.00;;;23.80;95.20;;;;;;5028173;28;20760;-76
2023/09/02 10:40:10;;;;;;;17.50;12.98;;;23.40;95.00;;;;;;5011121;28;20065;-77
2023/09/02 10:42:37;;;;;;;17.40;13.20;;;23.40;95.20;;;;;;5011423;28;20065;-75
2023/09/02 10:45:04;;;;;;;20.13;13.65;;;22.90;95.10;;;;;;5011826;28;20081;-77
2023/09/02 10:47:31;;;;;;;19.27;12.85;;;;;;;;;;4992432;28;20412;-76
2023/09/02 10:49:57;;;;;;;17.00;12.18;;;23.40;95.20;;;;;;5011540;28;20111;-75
2023/09/02 10:52:24;;;;;;;12.90;9.80;;;;;;;;;;5011360;28;20491;-77
2023/09/02 10:55:10;;;;;;;17.77;12.25;;;23.40;95.30;;;;;;5011704;28;20465;-76
2023/09/02 10:57:54;;;;;;;16.25;12.35;;;23.10;94.80;;;;;;5016162;28;20061;-75
2023/09/02 11:00:29;;;;;;;17.88;12.35;;;22.90;95.20;;;;;;5011882;28;20765;-77
2023/09/02 11:02:57;;;;;;;13.88;10.55;;;22.80;95.80;;;;;;4994722;28;20088;-76
2023/09/02 11:05:26;;;;;;;17.55;12.13;;;22.70;95.50;;;;;;5009101;28;20683;-74
2023/09/02 11:07:53;;;;;;;14.98;10.82;;;22.40;95.40;;;;;;5011641;28;20196;-75
2023/09/02 11:10:50;;;;;;;18.30;13.55;;;22.40;95.80;;;;;;4995273;28;20053;-75
2023/09/02 11:13:16;;;;;;;17.98;12.13;;;;;;;;;;4990367;28;20146;-74
2023/09/02 11:16:14;;;;;;;19.98;12.68;;;22.20;96.60;;;;;;4995102;28;20060;-78
2023/09/02 11:18:41;;;;;;;18.90;12.02;;;;;;;;;;4994459;28;20706;-78
2023/09/02 11:21:07;;;;;;;17.98;12.10;;;;;;;;;;5009361;28;20064;-74
2023/09/02 11:23:35;;;;;;;14.75;11.93;;;22.00;96.80;;;;;;5011669;28;20295;-78
2023/09/02 11:26:06;;;;;;;16.65;12.45;;;22.00;96.30;;;;;;5010960;28;20061;-75
2023/09/02 11:28:33;;;;;;;19.50;12.43;;;;;;;;;;4993303;28;20065;-77
2023/09/02 11:31:12;;;;;;;15.18;11.18;;;22.10;95.90;;;;;;4994178;28;20315;-76
2023/09/02 11:33:46;;;;;;;13.48;11.20;;;22.20;95.70;;;;;;4995002;28;20053;-78
2023/09/02 11:36:19;;;;;;;18.73;12.60;;;22.20;95.50;;;;;;4995333;28;20061;-77
2023/09/02 11:38:46;;;;;;;18.88;12.55;;;;;;;;;;5011159;28;20057;-76
2023/09/02 11:41:21;;;;;;;18.02;11.95;;;22.40;96.30;;;;;;5005786;28;20061;-76
2023/09/02 11:43:48;;;;;;;16.88;11.45;;;;;;;;;;5010602;28;20702;-77
2023/09/02 11:46:14;;;;;;;17.17;11.82;;;;;;;;;;4996533;28;20056;-76
2023/09/02 11:48:42;;;;;;;18.23;11.23;;;22.60;96.90;;;;;;5013987;28;20143;-77
2023/09/02 11:51:12;;;;;;;18.40;13.07;;;22.50;96.20;;;;;;5008129;28;20072;-73
2023/09/02 11:53:38;;;;;;;16.75;11.75;;;;;;;;;;5013880;28;20045;-76
2023/09/02 11:56:09;;;;;;;19.05;12.43;;;22.10;96.10;;;;;;5013501;28;20049;-73
2023/09/02 11:58:35;;;;;;;19.63;13.38;;;;;;;;;;4997732;28;20140;-77
2023/09/02 12:01:01;;;;;;;17.15;11.57;;;;;;;;;;5015039;28;20156;-74
2023/09/02 12:03:28;;;;;;;16.95;11.90;;;;;;;;;;5014780;28;20049;-77
2023/09/02 12:06:00;;;;;;;14.10;11.35;;;21.80;96.00;;;;;;5014291;28;20061;-75
2023/09/02 12:08:27;;;;;;;14.55;10.75;;;;;;;;;;5009708;28;20061;-74
2023/09/02 12:10:53;;;;;;;16.75;11.00;;;22.10;96.20;;;;;;5007486;28;20054;-75
2023/09/02 12:13:20;;;;;;;13.82;9.02;;;;;;;;;;5014178;28;20080;-76
2023/09/02 12:15:49;;;;;;;13.75;11.82;;;22.20;96.20;;;;;;5014626;28;20091;-76
2023/09/02 12:18:20;;;;;;;14.25;11.02;;;22.20;96.20;;;;;;4999857;28;20057;-78
2023/09/02 12:20:47;;;;;;;17.97;12.43;;;;;;;;;;5000634;28;20065;-72
2023/09/02 12:23:14;;;;;;;13.73;10.10;;;;;;;;;;5014687;28;20908;-74
2023/09/02 12:25:41;;;;;;;16.52;10.90;;;;;;;;;;5014281;28;20045;-76
2023/09/02 12:28:14;;;;;;;15.50;10.00;;;22.10;96.20;;;;;;4992217;28;20049;-76
2023/09/02 12:30:44;;;;;;;13.68;9.05;;;22.20;96.20;;;;;;5013629;28;21112;-75
2023/09/02 12:33:10;;;;;;;13.93;9.55;;;;;;;;;;5013523;28;20561;-77
2023/09/02 12:35:36;;;;;;;12.90;9.98;;;;;;;;;;5015782;28;20061;-74
2023/09/02 12:38:08;;;;;;;11.60;7.90;;;22.10;95.60;;;;;;5013774;28;20818;-76
2023/09/02 12:40:35;;;;;;;14.27;9.57;;;;;;;;;;5012768;28;20168;-73
2023/09/02 12:43:01;;;;;;;10.93;9.35;;;22.10;96.20;;;;;;4998387;28;20057;-75
2023/09/02 12:45:31;;;;;;;11.10;8.80;;;22.10;96.50;;;;;;4998306;28;20061;-77
2023/09/02 12:48:01;;;;;;;10.50;7.60;;;22.20;96.80;;;;;;5014814;28;20327;-76
2023/09/02 12:50:27;;;;;;;10.20;7.78;;;;;;;;;;5005105;28;20053;-76
2023/09/02 12:52:55;;;;;;;10.15;7.35;;;22.50;96.00;;;;;;5013530;28;20057;-73
2023/09/02 12:55:24;;;;;;;8.45;6.75;;;22.50;95.70;;;;;;5014207;28;20437;-73
2023/09/02 12:57:50;;;;;;;9.50;6.15;;;;;;;;;;5012330;28;20148;-74
2023/09/02 13:00:16;;;;;;;13.82;8.00;;;;;;;;;;5014145;28;20661;-73
2023/09/02 13:02:42;;;;;;;12.02;6.72;;;;;;;;;;5013317;28;20080;-75
2023/09/02 13:05:08;;;;;;;9.52;5.50;;;22.30;96.00;;;;;;4994102;28;20068;-74
2023/09/02 13:07:34;;;;;;;11.13;7.03;;;;;;;;;;5014268;28;20068;-76
2023/09/02 13:10:01;;;;;;;10.18;4.93;;;;;;;;;;5014471;28;20051;-76
2023/09/02 13:12:27;;;;;;;7.38;5.30;;;22.10;99.80;;;;;;5012053;28;20057;-72
2023/09/02 13:14:53;;;;;;;6.85;3.92;;;;;;;;;;5014044;28;20311;-75
2023/09/02 13:17:19;;;;;;;7.28;4.38;;;;;;;;;;5013465;28;20093;-75
2023/09/02 13:19:46;;;;;;;9.27;4.00;;;21.50;97.80;;;;;;5013860;28;20732;-76
2023/09/02 13:22:13;;;;;;;7.63;4.07;;;21.50;97.80;;;;;;5014061;28;20064;-76
2023/09/02 13:24:39;;;;;;;10.48;5.40;;;;;;;;;;5014157;28;20068;-74
2023/09/02 13:27:06;;;;;;;6.63;4.88;;;21.80;96.50;;;;;;5020531;23;20485;-73
2023/09/02 13:29:32;;;;;;;7.90;4.55;;;22.00;96.60;;;;;;5033091;22;20160;-76
2023/09/02 13:32:07;;;;;;;7.85;4.55;;;22.40;95.40;;;;;;5033192;28;20061;-78
2023/09/02 13:34:35;;;;;;;5.45;3.58;;;22.40;94.80;;;;;;5029225;28;20053;-73
2023/09/02 13:37:01;;;;;;;7.38;3.50;;;;;;;;;;5028238;28;20546;-76
2023/09/02 13:39:27;;;;;;;5.82;3.15;;;;;;;;;;5033861;28;20443;-76
2023/09/02 13:41:53;;;;;;;5.68;3.70;;;;;;;;;;5031690;28;20060;-76
2023/09/02 13:44:20;;;;;;;10.70;4.05;;;22.80;96.00;;;;;;5016171;28;20057;-73
2023/09/02 13:46:53;;;;;;;8.63;4.32;;;23.10;94.10;;;;;;5016513;28;20496;-73
2023/09/02 13:49:19;;;;;;;7.93;3.10;;;;;;;;;;5033956;28;20060;-75